Terminal Aerodrome Forecast
Issued by NWS

Home | Current Version | Previous Version | Graphics & Text | Print | Product List | Glossary On
Versions: 1 2 3 4 5 6 7 8 9 10 11 12 13 14 15 16 17 18 19 20 21 22 23 24 25
000
FTUS43 KGRB 260520
TAFRHI
TAF
KRHI 260520Z 2606/2706 03006KT P6SM -SHRA OVC050
      TEMPO 2606/2610 5SM SHRA BR BKN025
     FM261000 07007KT 5SM SHRA BR OVC015
      TEMPO 2610/2614 BKN007
     FM261400 15009KT 4SM SHRA BR OVC007
     FM261700 23008KT 4SM SHRA OVC015
     FM262100 27008KT P6SM VCSH OVC015
     FM270100 35009KT P6SM OVC015=

USA.gov is the U.S. government's official web portal to all federal, state and local government web resources and services.